Time;durP1;ratioP1;P1;durP2;ratioP2;P2;SDS_P1;SDS_P2;PMS_P1;PMS_P2;Temp;Humidity;BMP_temperature;BMP_pressure;BME280_temperature;BME280_humidity;BME280_pressure;Samples;Min_cycle;Max_cycle;Signal;HPM_P1;HPM_P2
2024/01/20 00:01:56;;;;;;;14.60;6.82;;;1.00;99.90;;;;;;5071710;28;20399;-83
2024/01/20 00:04:22;;;;;;;14.05;7.55;;;1.00;99.90;;;;;;5057360;28;20048;-83
2024/01/20 00:06:47;;;;;;;15.63;8.00;;;1.20;99.90;;;;;;5052919;28;20102;-84
2024/01/20 00:09:13;;;;;;;16.00;8.50;;;1.00;99.90;;;;;;5055762;28;20048;-84
2024/01/20 00:11:39;;;;;;;11.82;7.30;;;1.70;99.90;;;;;;5054138;28;20052;-84
2024/01/20 00:14:04;;;;;;;14.65;8.13;;;1.10;99.90;;;;;;5071295;28;20378;-84
2024/01/20 00:16:30;;;;;;;15.10;8.27;;;1.00;99.90;;;;;;5063715;28;20555;-85
2024/01/20 00:18:57;;;;;;;14.65;8.35;;;1.60;99.90;;;;;;5062895;28;20041;-84
2024/01/20 00:21:23;;;;;;;14.32;8.20;;;1.10;99.90;;;;;;5049869;28;20045;-84
2024/01/20 00:23:49;;;;;;;13.32;7.90;;;1.10;99.90;;;;;;5066505;28;20056;-84
2024/01/20 00:26:15;;;;;;;14.80;8.85;;;1.10;99.90;;;;;;5054434;28;20420;-85
2024/01/20 00:28:40;;;;;;;14.25;8.50;;;1.00;99.90;;;;;;5051634;28;20069;-84
2024/01/20 00:31:06;;;;;;;16.63;9.30;;;1.00;99.90;;;;;;5052234;28;20037;-84
2024/01/20 00:33:31;;;;;;;18.00;9.98;;;1.00;99.90;;;;;;5061522;28;20061;-83
2024/01/20 00:35:57;;;;;;;13.90;8.20;;;1.10;99.90;;;;;;5056690;28;20133;-85
2024/01/20 00:38:25;;;;;;;15.93;9.73;;;1.20;99.90;;;;;;5055058;28;20048;-84
2024/01/20 00:40:51;;;;;;;16.38;10.30;;;1.10;99.90;;;;;;5070798;28;20036;-84
2024/01/20 00:43:16;;;;;;;17.40;10.55;;;1.00;99.90;;;;;;5069387;28;20044;-84
2024/01/20 00:45:42;;;;;;;15.70;9.65;;;1.00;99.90;;;;;;5062457;28;20032;-82
2024/01/20 00:48:08;;;;;;;17.83;10.27;;;1.00;99.90;;;;;;5051243;28;20142;-84
2024/01/20 00:50:34;;;;;;;20.33;10.20;;;1.00;99.90;;;;;;5051882;28;20053;-84
2024/01/20 00:53:00;;;;;;;18.40;10.13;;;1.00;99.90;;;;;;5069887;28;20466;-85
2024/01/20 00:55:25;;;;;;;19.95;10.90;;;2.00;99.90;;;;;;5069581;28;20374;-83
2024/01/20 00:57:51;;;;;;;17.17;10.70;;;1.80;99.90;;;;;;5054739;28;20123;-84
2024/01/20 01:00:20;;;;;;;16.30;11.68;;;1.90;99.90;;;;;;5068737;28;20123;-85
2024/01/20 01:02:45;;;;;;;19.38;11.20;;;0.90;99.90;;;;;;5069676;28;20120;-83
2024/01/20 01:05:11;;;;;;;19.77;11.73;;;1.50;99.90;;;;;;5053771;28;20056;-84
2024/01/20 01:07:37;;;;;;;20.58;11.27;;;0.90;99.90;;;;;;5067213;28;20041;-85
2024/01/20 01:10:04;;;;;;;23.15;12.00;;;1.40;99.90;;;;;;5075160;28;20445;-85
2024/01/20 01:12:30;;;;;;;19.75;12.88;;;0.90;99.90;;;;;;5066128;28;20055;-85
2024/01/20 01:14:56;;;;;;;20.30;13.68;;;0.90;99.90;;;;;;5066056;28;20404;-84
2024/01/20 01:17:24;;;;;;;19.23;12.40;;;1.30;99.90;;;;;;5050591;28;20720;-84
2024/01/20 01:19:50;;;;;;;20.05;11.77;;;0.80;99.90;;;;;;5055708;28;20394;-85
2024/01/20 01:22:16;;;;;;;21.45;12.43;;;0.90;99.90;;;;;;5067320;28;20132;-84
2024/01/20 01:24:41;;;;;;;19.20;12.75;;;0.80;99.90;;;;;;5050279;28;20589;-85
2024/01/20 01:27:07;;;;;;;22.35;13.32;;;0.80;99.90;;;;;;5062839;28;20049;-85
2024/01/20 01:29:33;;;;;;;21.42;13.32;;;0.80;99.90;;;;;;5051982;28;20056;-84
2024/01/20 01:31:59;;;;;;;23.40;14.88;;;0.80;99.90;;;;;;5063394;28;20040;-85
2024/01/20 01:34:24;;;;;;;19.08;13.77;;;0.80;99.90;;;;;;5071592;28;20097;-85
2024/01/20 01:36:50;;;;;;;22.00;13.82;;;0.80;99.90;;;;;;5057729;28;20110;-85
2024/01/20 01:39:17;;;;;;;23.33;13.38;;;1.50;99.90;;;;;;5054270;28;20048;-84
2024/01/20 01:41:43;;;;;;;22.13;14.30;;;1.30;99.90;;;;;;5054138;28;20056;-84
2024/01/20 01:44:09;;;;;;;20.80;13.75;;;0.80;99.90;;;;;;5053303;28;20114;-84
2024/01/20 01:46:35;;;;;;;25.17;14.57;;;0.80;99.90;;;;;;5065388;28;20048;-85
2024/01/20 01:49:01;;;;;;;22.00;15.10;;;0.80;99.90;;;;;;5058479;28;20450;-86
2024/01/20 01:51:28;;;;;;;21.90;14.75;;;0.80;99.90;;;;;;5059744;28;20040;-85
2024/01/20 01:54:01;;;;;;;31.70;15.68;;;0.80;99.90;;;;;;5049738;28;20161;-85
2024/01/20 01:56:30;;;;;;;22.75;15.10;;;0.80;99.90;;;;;;5069151;28;20048;-85
2024/01/20 01:58:56;;;;;;;26.38;15.73;;;0.80;99.90;;;;;;5053783;28;20102;-83
2024/01/20 02:01:22;;;;;;;25.10;15.35;;;0.80;99.90;;;;;;5052615;28;20041;-83
2024/01/20 02:03:48;;;;;;;20.13;15.20;;;1.60;99.90;;;;;;5054715;28;20057;-85
2024/01/20 02:06:14;;;;;;;22.08;15.27;;;1.70;99.90;;;;;;5057434;28;20130;-85
2024/01/20 02:08:40;;;;;;;25.15;15.55;;;1.20;99.90;;;;;;5072030;28;20048;-85
2024/01/20 02:11:07;;;;;;;25.75;15.77;;;0.90;99.90;;;;;;5075670;28;20037;-84
2024/01/20 02:13:34;;;;;;;24.27;15.80;;;0.80;99.90;;;;;;5073835;28;20712;-86
2024/01/20 02:16:01;;;;;;;24.88;16.20;;;0.80;99.90;;;;;;5065705;28;20047;-85
2024/01/20 02:18:27;;;;;;;26.00;16.08;;;0.80;99.90;;;;;;5073818;28;20056;-85
2024/01/20 02:20:55;;;;;;;25.52;15.82;;;0.80;99.90;;;;;;5064654;28;20045;-84
2024/01/20 02:23:21;;;;;;;28.45;17.50;;;0.80;99.90;;;;;;5054927;28;20092;-85
2024/01/20 02:25:47;;;;;;;23.88;16.70;;;0.70;99.90;;;;;;5056205;28;20108;-85
2024/01/20 02:28:14;;;;;;;26.17;18.13;;;0.70;99.90;;;;;;5059336;28;20033;-84
2024/01/20 02:30:41;;;;;;;28.20;18.80;;;1.50;99.90;;;;;;5053994;28;20132;-85
2024/01/20 02:33:07;;;;;;;27.83;17.40;;;0.70;99.90;;;;;;5072965;28;20044;-84
2024/01/20 02:35:32;;;;;;;26.83;18.75;;;0.60;99.90;;;;;;5073577;28;20036;-84
2024/01/20 02:38:00;;;;;;;26.20;17.52;;;0.60;99.90;;;;;;5060501;28;20053;-85
2024/01/20 02:40:26;;;;;;;25.17;17.95;;;0.60;99.90;;;;;;5055162;28;20099;-84
2024/01/20 02:42:52;;;;;;;31.45;20.17;;;0.60;99.90;;;;;;5070394;28;20079;-83
2024/01/20 02:45:18;;;;;;;28.83;18.58;;;0.60;99.90;;;;;;5071234;28;20080;-85
2024/01/20 02:47:44;;;;;;;26.50;18.55;;;0.60;99.90;;;;;;5065803;28;20515;-85
2024/01/20 02:50:10;;;;;;;29.85;18.63;;;0.60;99.90;;;;;;5071160;28;20044;-85
2024/01/20 02:52:35;;;;;;;29.48;18.98;;;0.50;99.90;;;;;;5073501;28;20059;-84
2024/01/20 02:55:04;;;;;;;29.27;20.27;;;0.80;99.90;;;;;;5069264;28;20478;-84
2024/01/20 02:57:30;;;;;;;29.65;19.73;;;0.60;99.90;;;;;;5054146;28;20052;-85
2024/01/20 02:59:56;;;;;;;34.88;22.10;;;0.60;99.90;;;;;;5052714;28;20420;-85
2024/01/20 03:02:23;;;;;;;33.55;21.92;;;0.60;99.90;;;;;;5063577;28;20048;-83
2024/01/20 03:04:49;;;;;;;28.45;20.40;;;1.40;99.90;;;;;;5072968;28;20126;-85
2024/01/20 03:07:15;;;;;;;35.25;21.13;;;0.50;99.90;;;;;;5070665;28;20138;-85
2024/01/20 03:09:40;;;;;;;30.25;22.08;;;0.50;99.90;;;;;;5063637;28;20045;-85
2024/01/20 03:12:07;;;;;;;38.28;22.17;;;0.50;99.90;;;;;;5061660;28;20044;-85
2024/01/20 03:14:35;;;;;;;33.65;22.60;;;1.10;99.90;;;;;;5054080;28;20056;-85
2024/01/20 03:17:01;;;;;;;38.88;23.80;;;0.40;99.90;;;;;;5053640;28;20095;-85
2024/01/20 03:19:29;;;;;;;36.63;24.15;;;0.40;99.90;;;;;;5060931;28;20098;-85
2024/01/20 03:21:55;;;;;;;37.63;22.55;;;0.40;99.90;;;;;;5073210;28;20075;-85
2024/01/20 03:24:23;;;;;;;34.25;23.20;;;1.30;99.90;;;;;;5073091;28;20052;-85
2024/01/20 03:26:49;;;;;;;37.30;24.45;;;0.50;99.90;;;;;;5071500;28;20051;-84
2024/01/20 03:29:15;;;;;;;36.00;24.50;;;0.40;99.90;;;;;;5074210;28;20403;-84
2024/01/20 03:31:41;;;;;;;41.65;24.20;;;1.00;99.90;;;;;;5073842;28;20040;-85
2024/01/20 03:34:07;;;;;;;41.17;26.00;;;0.40;99.90;;;;;;5072649;28;20132;-85
2024/01/20 03:36:32;;;;;;;37.25;25.10;;;0.40;99.90;;;;;;5070902;28;20119;-85
2024/01/20 03:39:00;;;;;;;40.30;26.77;;;0.40;99.90;;;;;;5062184;28;20036;-85
2024/01/20 03:41:26;;;;;;;37.83;24.80;;;0.30;99.90;;;;;;5071630;28;20077;-83
2024/01/20 03:43:51;;;;;;;38.15;25.40;;;0.30;99.90;;;;;;5061354;28;20075;-86
2024/01/20 03:46:18;;;;;;;43.97;26.45;;;0.90;99.90;;;;;;5072598;28;20083;-84
2024/01/20 03:48:44;;;;;;;42.80;25.30;;;1.30;99.90;;;;;;5057866;28;20041;-85
2024/01/20 03:51:10;;;;;;;34.67;24.60;;;0.90;99.90;;;;;;5052619;28;20503;-85
2024/01/20 03:53:35;;;;;;;37.08;24.08;;;0.30;99.90;;;;;;5051729;28;20059;-84
2024/01/20 03:56:02;;;;;;;41.33;26.65;;;0.30;99.90;;;;;;5052302;28;20136;-85
2024/01/20 03:58:30;;;;;;;39.30;26.02;;;0.20;99.90;;;;;;5051087;28;20053;-85
2024/01/20 04:00:55;;;;;;;36.25;25.10;;;0.20;99.90;;;;;;5051304;28;20052;-83
2024/01/20 04:03:21;;;;;;;42.72;26.17;;;0.20;99.90;;;;;;5051945;28;20041;-85
2024/01/20 04:05:47;;;;;;;36.83;25.00;;;0.20;99.90;;;;;;5052022;28;20063;-85
2024/01/20 04:08:13;;;;;;;41.05;25.77;;;0.90;99.90;;;;;;5057868;28;20152;-84
2024/01/20 04:10:40;;;;;;;42.83;26.63;;;0.50;99.90;;;;;;5055538;28;20049;-85
2024/01/20 04:13:06;;;;;;;36.78;25.70;;;0.20;99.90;;;;;;5054663;28;20056;-84
2024/01/20 04:15:34;;;;;;;37.85;25.88;;;0.20;99.90;;;;;;5053615;28;20045;-85
2024/01/20 04:17:59;;;;;;;46.05;26.65;;;0.20;99.90;;;;;;5060821;28;20044;-85
2024/01/20 04:20:25;;;;;;;42.33;26.55;;;1.10;99.90;;;;;;5034861;28;20040;-85
2024/01/20 04:22:51;;;;;;;41.85;26.35;;;0.20;99.90;;;;;;5050862;28;20493;-85
2024/01/20 04:25:19;;;;;;;42.90;26.83;;;0.80;99.90;;;;;;5061038;28;20147;-84
2024/01/20 04:27:44;;;;;;;38.55;26.27;;;0.20;99.90;;;;;;5068852;28;20056;-85
2024/01/20 04:30:11;;;;;;;35.40;25.02;;;0.10;99.90;;;;;;5070705;28;20044;-85
2024/01/20 04:32:37;;;;;;;39.40;26.60;;;0.10;99.90;;;;;;5059003;28;20057;-85
2024/01/20 04:35:04;;;;;;;43.08;26.63;;;0.10;99.90;;;;;;5052193;28;20048;-84
2024/01/20 04:37:30;;;;;;;40.92;26.02;;;0.10;99.90;;;;;;5052747;28;20041;-86
2024/01/20 04:39:56;;;;;;;39.75;25.70;;;0.10;99.90;;;;;;5053924;28;20032;-85
2024/01/20 04:42:22;;;;;;;41.35;26.10;;;0.60;99.90;;;;;;5063844;28;20040;-83
2024/01/20 04:44:48;;;;;;;41.28;26.17;;;0.10;99.90;;;;;;5050347;28;20136;-84
2024/01/20 04:47:13;;;;;;;44.45;25.58;;;0.80;99.90;;;;;;5051612;28;20128;-85
2024/01/20 04:49:39;;;;;;;42.25;25.35;;;0.10;99.90;;;;;;5061142;28;20040;-85
2024/01/20 04:52:05;;;;;;;40.78;26.15;;;0.10;99.90;;;;;;5058869;28;20072;-85
2024/01/20 04:54:31;;;;;;;39.38;25.23;;;0.10;99.90;;;;;;5056229;28;20142;-85
2024/01/20 04:56:57;;;;;;;36.67;25.30;;;0.60;99.90;;;;;;5051971;28;20055;-85
2024/01/20 04:59:24;;;;;;;42.08;24.92;;;0.10;99.90;;;;;;5068691;28;20354;-85
2024/01/20 05:01:49;;;;;;;41.08;24.60;;;0.30;99.90;;;;;;5052346;28;20052;-85
2024/01/20 05:04:15;;;;;;;39.28;24.67;;;0.10;99.90;;;;;;5050492;28;20041;-85
2024/01/20 05:06:45;;;;;;;41.45;25.92;;;0.10;99.90;;;;;;5050204;28;20049;-85
2024/01/20 05:09:13;;;;;;;42.53;25.35;;;0.10;99.90;;;;;;5049196;28;20095;-85
2024/01/20 05:11:39;;;;;;;49.90;26.35;;;0.10;99.90;;;;;;5065001;28;20037;-85
2024/01/20 05:14:05;;;;;;;46.35;25.48;;;0.10;99.90;;;;;;5069590;28;20534;-85
2024/01/20 05:16:31;;;;;;;42.28;25.45;;;0.20;99.90;;;;;;5067368;28;20040;-86
2024/01/20 05:18:57;;;;;;;39.60;24.25;;;0.10;99.90;;;;;;5064707;28;20377;-86
2024/01/20 05:21:22;;;;;;;44.88;25.50;;;0.10;99.90;;;;;;5014004;28;1142487;-84
2024/01/20 05:23:49;;;;;;;44.55;24.92;;;0.10;99.90;;;;;;5068599;28;20055;-85
2024/01/20 05:26:15;;;;;;;42.58;24.58;;;0.00;99.90;;;;;;5062784;28;20052;-85
2024/01/20 05:28:41;;;;;;;42.78;25.38;;;0.10;99.90;;;;;;5068919;28;20189;-85
2024/01/20 05:31:07;;;;;;;38.90;23.05;;;0.10;99.90;;;;;;5050408;28;20052;-85
2024/01/20 05:33:33;;;;;;;40.67;24.55;;;0.10;99.90;;;;;;5066712;28;20045;-85
2024/01/20 05:35:58;;;;;;;48.03;23.63;;;0.00;99.90;;;;;;5062110;28;20380;-85
2024/01/20 05:38:24;;;;;;;48.45;25.50;;;0.10;99.90;;;;;;5053064;28;20048;-86
2024/01/20 05:40:49;;;;;;;41.03;24.33;;;0.00;99.90;;;;;;5038713;28;20047;-83
2024/01/20 05:43:15;;;;;;;46.50;23.90;;;0.00;99.90;;;;;;5063586;28;20047;-86
2024/01/20 05:45:41;;;;;;;48.25;25.73;;;0.00;99.90;;;;;;5070391;28;20470;-84
2024/01/20 05:48:06;;;;;;;42.38;23.42;;;0.00;99.90;;;;;;5067355;28;20051;-87
2024/01/20 05:50:32;;;;;;;42.03;24.52;;;0.00;99.90;;;;;;5044366;28;20040;-83
2024/01/20 05:52:58;;;;;;;45.55;23.98;;;0.00;99.90;;;;;;5070899;28;20049;-85
2024/01/20 05:55:24;;;;;;;42.00;24.38;;;0.00;99.90;;;;;;5070833;28;20040;-85
2024/01/20 05:57:49;;;;;;;51.65;25.27;;;-0.10;99.90;;;;;;5059908;28;20111;-91
2024/01/20 06:00:17;;;;;;;53.17;25.20;;;-0.10;99.90;;;;;;5051544;28;20133;-86
2024/01/20 06:02:42;;;;;;;45.75;25.83;;;0.00;99.90;;;;;;5051973;28;20120;-85
2024/01/20 06:05:08;;;;;;;49.60;25.60;;;0.70;99.90;;;;;;5033901;28;20135;-84
2024/01/20 06:07:34;;;;;;;49.15;24.50;;;-0.10;99.90;;;;;;5051911;28;20087;-83
2024/01/20 06:10:00;;;;;;;52.15;25.27;;;-0.10;99.90;;;;;;5050087;28;20098;-84
2024/01/20 06:12:25;;;;;;;52.60;24.80;;;-0.10;99.90;;;;;;5052546;28;20045;-83
2024/01/20 06:14:51;;;;;;;47.40;25.40;;;0.60;99.90;;;;;;5051686;28;20406;-84
2024/01/20 06:17:17;;;;;;;46.03;24.50;;;-0.10;99.90;;;;;;5057104;28;20230;-85
2024/01/20 06:19:42;;;;;;;50.67;25.05;;;0.00;99.90;;;;;;5041871;28;20049;-84
2024/01/20 06:22:08;;;;;;;52.63;24.65;;;-0.10;99.90;;;;;;5065746;28;20063;-84
2024/01/20 06:24:33;;;;;;;47.78;23.98;;;-0.10;99.90;;;;;;5065953;28;20056;-85
2024/01/20 06:26:59;;;;;;;51.85;25.42;;;-0.10;99.90;;;;;;5062339;28;21090;-85
2024/01/20 06:29:25;;;;;;;48.20;25.42;;;-0.10;99.90;;;;;;5062928;28;20049;-85
2024/01/20 06:31:51;;;;;;;49.97;25.50;;;-0.10;99.90;;;;;;5066523;28;20041;-85
2024/01/20 06:34:16;;;;;;;50.25;24.90;;;-0.10;99.90;;;;;;5067800;28;20433;-86
2024/01/20 06:36:42;;;;;;;50.78;24.23;;;-0.20;99.90;;;;;;5059447;28;20140;-84
2024/01/20 06:39:08;;;;;;;48.03;24.58;;;0.80;99.90;;;;;;5063931;28;20051;-85
2024/01/20 06:41:33;;;;;;;50.10;23.25;;;-0.20;99.90;;;;;;5067526;28;20044;-85
2024/01/20 06:43:59;;;;;;;54.45;23.63;;;-0.20;99.90;;;;;;5063257;28;20407;-85
2024/01/20 06:46:25;;;;;;;50.33;23.88;;;-0.20;99.90;;;;;;5070087;28;20097;-85
2024/01/20 06:48:50;;;;;;;47.00;22.80;;;0.20;99.90;;;;;;5062732;28;20047;-84
2024/01/20 06:51:16;;;;;;;45.38;21.70;;;-0.20;99.90;;;;;;5062474;28;20041;-84
2024/01/20 06:53:45;;;;;;;49.15;24.13;;;0.70;99.90;;;;;;5068750;28;20048;-85
2024/01/20 06:56:11;;;;;;;56.63;24.30;;;-0.20;99.90;;;;;;5051183;28;20397;-85
2024/01/20 06:58:36;;;;;;;53.10;24.35;;;-0.20;99.90;;;;;;5064685;28;20086;-84
2024/01/20 07:01:02;;;;;;;46.47;22.35;;;-0.20;99.90;;;;;;5060621;28;20045;-84
2024/01/20 07:03:28;;;;;;;52.88;24.70;;;-0.20;99.90;;;;;;5057708;28;20056;-85
2024/01/20 07:05:53;;;;;;;45.88;22.48;;;-0.20;99.90;;;;;;5055983;28;20045;-84
2024/01/20 07:08:19;;;;;;;53.95;24.52;;;-0.20;99.90;;;;;;5062381;28;20102;-87
2024/01/20 07:10:45;;;;;;;48.78;22.63;;;0.70;99.90;;;;;;5057811;28;20047;-88
2024/01/20 07:13:11;;;;;;;49.70;24.15;;;-0.20;99.90;;;;;;5053883;28;20537;-86
2024/01/20 07:15:37;;;;;;;46.40;22.30;;;-0.20;99.90;;;;;;5053531;28;20045;-85
2024/01/20 07:18:03;;;;;;;45.65;22.67;;;-0.20;99.90;;;;;;5041003;28;20079;-86
2024/01/20 07:20:29;;;;;;;42.10;22.30;;;-0.20;99.90;;;;;;5063554;28;20072;-86
2024/01/20 07:22:55;;;;;;;44.45;21.08;;;-0.20;99.90;;;;;;5069968;28;20078;-87
2024/01/20 07:25:20;;;;;;;47.63;21.92;;;-0.20;99.90;;;;;;5068119;28;20115;-86
2024/01/20 07:27:46;;;;;;;49.28;23.15;;;-0.20;99.90;;;;;;5055409;28;20155;-85
2024/01/20 07:30:12;;;;;;;49.15;24.02;;;-0.20;99.90;;;;;;5073305;28;20048;-84
2024/01/20 07:32:40;;;;;;;49.72;22.20;;;-0.20;99.90;;;;;;5060376;28;20060;-85
2024/01/20 07:35:07;;;;;;;49.13;22.23;;;-0.20;99.90;;;;;;5053367;28;20084;-86
2024/01/20 07:37:35;;;;;;;46.47;21.38;;;-0.20;99.90;;;;;;5053107;28;20128;-86
2024/01/20 07:40:05;;;;;;;47.78;23.50;;;-0.60;99.90;;;;;;5073088;28;20059;-85
2024/01/20 07:42:34;;;;;;;45.35;21.45;;;-0.10;99.90;;;;;;5061281;28;20047;-86
2024/01/20 07:45:00;;;;;;;47.83;22.58;;;0.00;99.90;;;;;;5060202;28;20032;-87
2024/01/20 07:47:26;;;;;;;45.65;22.63;;;0.00;99.90;;;;;;5052676;28;20443;-88
2024/01/20 07:49:52;;;;;;;49.30;22.52;;;-0.60;99.90;;;;;;5052508;28;20057;-88
2024/01/20 07:52:18;;;;;;;49.60;23.60;;;0.10;99.90;;;;;;5054379;28;20048;-84
2024/01/20 07:54:43;;;;;;;47.25;21.75;;;0.10;99.90;;;;;;5058861;28;20044;-92
2024/01/20 07:57:10;;;;;;;43.75;20.63;;;0.10;99.90;;;;;;5056294;28;20053;-90
2024/01/20 07:59:35;;;;;;;43.35;21.77;;;0.20;99.90;;;;;;5061304;28;20118;-85
2024/01/20 08:02:01;;;;;;;45.45;21.27;;;0.20;99.90;;;;;;5062979;28;20036;-86
2024/01/20 08:04:26;;;;;;;49.97;20.95;;;0.20;99.90;;;;;;5055252;28;20053;-86
2024/01/20 08:06:52;;;;;;;40.75;20.83;;;0.90;99.90;;;;;;5057119;28;20080;-87
2024/01/20 08:09:19;;;;;;;45.03;22.08;;;1.20;99.90;;;;;;5064094;28;20057;-85
2024/01/20 08:11:44;;;;;;;44.80;22.27;;;0.90;99.90;;;;;;5066247;28;20052;-89
2024/01/20 08:14:10;;;;;;;44.80;21.17;;;0.70;99.90;;;;;;5057541;28;20049;-85
2024/01/20 08:16:36;;;;;;;48.92;25.17;;;0.30;99.90;;;;;;5060442;28;20457;-88
2024/01/20 08:19:01;;;;;;;43.55;20.83;;;0.30;99.90;;;;;;5056570;28;20703;-84
2024/01/20 08:21:27;;;;;;;49.88;23.02;;;0.30;99.90;;;;;;5050841;28;20052;-85
2024/01/20 08:23:54;;;;;;;45.92;21.13;;;0.30;99.90;;;;;;5051152;28;20598;-85
2024/01/20 08:26:20;;;;;;;41.38;19.55;;;0.30;99.90;;;;;;5057865;28;20424;-86
2024/01/20 08:28:46;;;;;;;50.40;24.00;;;0.30;99.90;;;;;;5065983;28;20055;-85
2024/01/20 08:31:11;;;;;;;41.47;21.23;;;0.40;99.90;;;;;;5051672;28;20040;-86
2024/01/20 08:33:37;;;;;;;41.00;21.75;;;0.30;99.90;;;;;;5067327;28;20040;-88
2024/01/20 08:36:03;;;;;;;43.60;22.42;;;0.90;99.90;;;;;;5065241;28;20050;-86
2024/01/20 08:38:29;;;;;;;48.25;22.83;;;0.40;99.90;;;;;;5062402;28;20403;-85
2024/01/20 08:40:54;;;;;;;46.20;22.67;;;0.40;99.90;;;;;;5072861;28;20037;-85
2024/01/20 08:43:20;;;;;;;50.38;23.60;;;0.40;99.90;;;;;;5041653;28;20098;-85
2024/01/20 08:45:46;;;;;;;44.25;21.17;;;0.40;99.90;;;;;;5061754;28;20063;-83
2024/01/20 08:48:12;;;;;;;52.88;22.95;;;0.80;99.90;;;;;;5061871;28;20099;-88
2024/01/20 08:50:38;;;;;;;46.85;21.08;;;0.50;99.90;;;;;;5069495;28;20079;-87
2024/01/20 08:53:03;;;;;;;48.58;23.38;;;0.50;99.90;;;;;;5071872;28;20504;-86
2024/01/20 08:55:29;;;;;;;44.60;21.92;;;0.50;99.90;;;;;;5055627;28;20448;-88
2024/01/20 08:57:56;;;;;;;45.65;21.73;;;0.60;99.90;;;;;;5054024;28;20048;-86
2024/01/20 09:00:23;;;;;;;47.88;22.52;;;0.60;99.90;;;;;;5055648;28;20663;-86
2024/01/20 09:02:49;;;;;;;44.10;22.40;;;0.80;99.90;;;;;;5058292;28;20431;-84
2024/01/20 09:05:17;;;;;;;43.00;22.45;;;0.60;99.90;;;;;;5051211;28;20075;-84
2024/01/20 09:07:43;;;;;;;47.47;22.20;;;0.70;99.90;;;;;;5050982;28;20432;-84
2024/01/20 09:10:09;;;;;;;44.65;21.95;;;1.30;99.90;;;;;;5059674;28;20049;-82
2024/01/20 09:12:35;;;;;;;42.67;20.02;;;0.70;99.90;;;;;;5060228;28;20066;-84
2024/01/20 09:15:00;;;;;;;47.10;23.58;;;0.70;99.90;;;;;;5056904;28;20045;-83
2024/01/20 09:17:26;;;;;;;46.78;20.55;;;0.80;99.90;;;;;;5064925;28;20048;-83
2024/01/20 09:19:52;;;;;;;48.05;22.13;;;0.80;99.90;;;;;;5060636;28;20056;-81
2024/01/20 09:22:17;;;;;;;49.17;21.73;;;0.80;99.90;;;;;;5055211;28;20516;-81
2024/01/20 09:24:43;;;;;;;41.92;20.58;;;0.90;99.90;;;;;;5054558;28;20667;-85
2024/01/20 09:27:09;;;;;;;43.80;20.02;;;0.90;99.90;;;;;;5057861;28;21037;-84
2024/01/20 09:29:34;;;;;;;40.97;20.58;;;0.90;99.90;;;;;;5058635;28;20053;-84
2024/01/20 09:32:00;;;;;;;46.70;22.05;;;0.90;99.90;;;;;;5058785;28;20049;-84
2024/01/20 09:34:26;;;;;;;45.25;20.50;;;1.00;99.90;;;;;;5056874;28;20041;-81
2024/01/20 09:36:51;;;;;;;44.60;21.63;;;1.00;99.90;;;;;;5056783;28;20036;-81
2024/01/20 09:39:17;;;;;;;43.80;21.63;;;1.00;99.90;;;;;;5053992;28;20045;-82
2024/01/20 09:41:43;;;;;;;43.83;20.20;;;2.00;99.90;;;;;;5061643;28;20052;-82
2024/01/20 09:44:12;;;;;;;42.90;18.90;;;1.00;99.90;;;;;;5056046;28;20052;-83
2024/01/20 09:46:38;;;;;;;37.35;17.92;;;1.10;99.90;;;;;;5052479;28;20056;-83
2024/01/20 09:49:04;;;;;;;37.42;18.55;;;1.50;99.90;;;;;;5060017;28;20451;-82
2024/01/20 09:51:31;;;;;;;40.80;20.10;;;1.10;99.90;;;;;;5051486;28;20041;-82
2024/01/20 09:54:00;;;;;;;38.83;20.30;;;1.20;99.90;;;;;;5052896;28;20053;-83
2024/01/20 09:56:27;;;;;;;44.72;21.88;;;1.40;99.90;;;;;;5056334;28;20048;-83
2024/01/20 09:58:57;;;;;;;39.75;18.67;;;1.20;99.90;;;;;;5062228;28;20132;-83
2024/01/20 10:01:24;;;;;;;41.13;19.83;;;1.70;99.90;;;;;;5058737;28;20047;-80
2024/01/20 10:03:50;;;;;;;36.88;17.98;;;1.50;99.90;;;;;;5056796;28;20044;-82
2024/01/20 10:06:16;;;;;;;41.60;17.92;;;1.30;99.90;;;;;;5058053;28;20037;-80
2024/01/20 10:08:42;;;;;;;39.92;19.48;;;2.20;99.90;;;;;;5058809;28;20049;-80
2024/01/20 10:11:08;;;;;;;36.85;17.90;;;1.30;99.90;;;;;;5041153;28;20102;-81
2024/01/20 10:13:34;;;;;;;38.33;17.58;;;1.40;99.90;;;;;;5064964;28;20416;-80
2024/01/20 10:15:59;;;;;;;33.67;16.13;;;1.70;99.90;;;;;;5058778;28;21313;-81
2024/01/20 10:18:32;;;;;;;36.20;18.27;;;1.40;99.90;;;;;;5055982;28;20435;-84
2024/01/20 10:21:02;;;;;;;31.83;16.85;;;1.40;99.90;;;;;;5058354;28;20298;-82
2024/01/20 10:23:28;;;;;;;35.17;17.83;;;1.50;99.90;;;;;;5060813;28;20146;-85
2024/01/20 10:26:07;;;;;;;35.20;17.25;;;1.50;99.90;;;;;;5055310;28;20048;-80
2024/01/20 10:28:33;;;;;;;37.88;19.02;;;1.50;99.90;;;;;;5057871;28;20068;-83
2024/01/20 10:31:06;;;;;;;32.58;16.95;;;1.50;99.90;;;;;;5060629;28;20064;-83
2024/01/20 10:33:32;;;;;;;39.63;18.03;;;2.50;99.90;;;;;;5062370;28;20059;-82
2024/01/20 10:35:59;;;;;;;37.45;18.08;;;1.60;99.90;;;;;;5044532;28;20048;-83
2024/01/20 10:38:28;;;;;;;34.83;16.88;;;1.60;99.90;;;;;;5059772;28;20049;-83
2024/01/20 10:40:57;;;;;;;34.95;16.30;;;1.70;99.90;;;;;;5072833;28;20119;-84
2024/01/20 10:43:27;;;;;;;29.25;15.55;;;1.80;99.90;;;;;;5053121;28;20124;-83
2024/01/20 10:46:00;;;;;;;31.33;15.82;;;1.80;99.90;;;;;;5065813;28;20488;-83
2024/01/20 10:48:28;;;;;;;36.38;16.55;;;2.00;99.90;;;;;;5060483;28;20479;-83
2024/01/20 10:50:59;;;;;;;31.95;16.08;;;1.80;99.90;;;;;;5053270;28;20053;-84
2024/01/20 10:53:29;;;;;;;31.70;16.98;;;1.80;99.90;;;;;;5056987;28;20094;-85
2024/01/20 10:55:56;;;;;;;35.53;16.75;;;1.90;99.90;;;;;;5053561;28;20045;-84
2024/01/20 10:58:31;;;;;;;31.88;15.18;;;2.30;99.90;;;;;;5053349;28;20052;-84
2024/01/20 11:00:57;;;;;;;31.77;15.32;;;1.90;99.90;;;;;;5054783;28;20045;-84
2024/01/20 11:03:24;;;;;;;35.13;16.73;;;1.90;99.90;;;;;;5070868;28;20098;-83
2024/01/20 11:05:54;;;;;;;33.05;17.30;;;2.00;99.90;;;;;;5057018;28;20052;-83
2024/01/20 11:08:24;;;;;;;34.72;17.35;;;2.00;99.90;;;;;;5070056;28;20528;-84
2024/01/20 11:10:52;;;;;;;37.40;20.50;;;2.30;99.90;;;;;;5063116;28;20041;-83
2024/01/20 11:13:25;;;;;;;33.13;16.15;;;2.10;99.90;;;;;;5050898;28;20135;-83
2024/01/20 11:15:51;;;;;;;34.83;16.38;;;2.00;99.90;;;;;;5058138;28;20116;-80
2024/01/20 11:18:22;;;;;;;36.92;18.38;;;2.00;99.90;;;;;;5060228;28;20055;-79
2024/01/20 11:21:01;;;;;;;31.77;16.77;;;2.00;99.90;;;;;;5064650;28;22205;-81
2024/01/20 11:23:27;;;;;;;33.58;16.50;;;2.00;99.90;;;;;;5056756;28;20523;-80
2024/01/20 11:25:57;;;;;;;37.05;17.48;;;1.90;99.90;;;;;;5065393;28;20660;-81
2024/01/20 11:28:33;;;;;;;33.20;17.27;;;1.90;99.90;;;;;;5063762;28;20044;-83
2024/01/20 11:31:05;;;;;;;36.00;18.08;;;1.90;99.90;;;;;;5059741;28;20139;-84
2024/01/20 11:33:31;;;;;;;34.75;17.00;;;1.90;99.90;;;;;;5053185;28;20569;-83
2024/01/20 11:35:57;;;;;;;35.28;18.10;;;1.90;99.90;;;;;;5053140;28;20044;-82
2024/01/20 11:38:23;;;;;;;35.92;20.13;;;2.00;99.90;;;;;;5054765;28;20049;-83
2024/01/20 11:41:01;;;;;;;35.25;18.52;;;1.90;99.90;;;;;;5055205;28;20106;-87
2024/01/20 11:43:27;;;;;;;37.80;17.10;;;1.90;99.90;;;;;;5053962;28;20041;-88
2024/01/20 11:45:56;;;;;;;31.70;17.48;;;2.90;99.90;;;;;;5059605;28;20133;-82
2024/01/20 11:48:22;;;;;;;36.05;17.77;;;2.50;99.90;;;;;;5057706;28;20507;-83
2024/01/20 11:50:49;;;;;;;35.88;18.15;;;2.20;99.90;;;;;;5055993;28;20053;-88
2024/01/20 11:53:15;;;;;;;40.15;18.55;;;2.00;99.90;;;;;;5065092;28;20041;-88
2024/01/20 11:55:51;;;;;;;33.65;17.30;;;2.50;99.90;;;;;;5036567;28;20052;-88
2024/01/20 11:58:16;;;;;;;36.25;17.77;;;2.00;99.90;;;;;;5054936;28;20048;-87
2024/01/20 12:00:43;;;;;;;38.65;18.65;;;2.00;99.90;;;;;;5052933;28;20672;-90
2024/01/20 12:03:09;;;;;;;40.78;17.92;;;2.00;99.90;;;;;;5054631;28;20134;-87
2024/01/20 12:05:34;;;;;;;35.50;17.83;;;2.00;99.90;;;;;;5062522;28;20090;-88
2024/01/20 12:08:01;;;;;;;33.95;18.10;;;2.00;99.90;;;;;;5066995;28;20043;-86
2024/01/20 12:10:26;;;;;;;32.25;17.42;;;2.00;99.90;;;;;;5056391;28;20053;-88
2024/01/20 12:12:52;;;;;;;38.97;18.85;;;2.00;99.90;;;;;;5062116;28;20048;-87
2024/01/20 12:15:18;;;;;;;32.22;18.45;;;2.00;99.90;;;;;;5072077;28;20052;-88
2024/01/20 12:17:44;;;;;;;37.47;19.00;;;2.10;99.90;;;;;;5054170;28;20069;-87
2024/01/20 12:20:10;;;;;;;40.22;18.98;;;2.20;99.90;;;;;;5052829;28;20068;-88
2024/01/20 12:22:36;;;;;;;36.45;17.60;;;2.10;99.90;;;;;;5051814;28;20087;-86
2024/01/20 12:25:03;;;;;;;34.63;20.27;;;2.10;99.90;;;;;;5052882;28;20045;-87
2024/01/20 12:27:28;;;;;;;39.58;19.63;;;2.10;99.90;;;;;;5065486;28;20412;-87
2024/01/20 12:29:54;;;;;;;36.95;18.67;;;2.10;99.90;;;;;;5060982;28;20099;-87
2024/01/20 12:32:20;;;;;;;37.53;19.25;;;2.10;99.90;;;;;;5089548;28;20511;-91